• Join FlightAware (Why Join?)
  • Login
  • US Flag 
03:50AM EST


 

Airport Tracker/Info


-or-


 

Live Flight TrackerFlight Track Log ✈ AWE433 ✈ 24-Apr-2013 ✈ KLAS - KPHL

Flight Track Log - Related Links

Times and Time Zones

All times are in EDT time to prevent confusion due to time zone crossing. See the AWE433 flight status page for this flight to view local times or setup timezone preferences in your user account.

Time Position Orientation Groundspeed Altitude Reporting Facility
EDT Latitude Longitude Course Direction KTS MPH feet Rate Location/Type
10:11AM 36.0767 -115.1814 93° East 185 213 3,500  Level Los Angeles Center
10:11AM 36.0756 -115.2350 269° West 208 239 4,300 1,080 Climbing Los Angeles Center
10:12AM 36.0778 -115.2547 278° West 217 250 4,600 2,400 Climbing Los Angeles Center
10:12AM 36.1161 -115.2933 321° Northwest 249 287 6,700 2,640 Climbing Los Angeles Center
10:13AM 36.1834 -115.0108 90° East  Level FlightAware Approximate
10:13AM 36.1358 -115.2944 357° North 253 291 7,300  Level Los Angeles Center
10:13AM 36.1728 -115.2561 40° Northeast 254 292 9,200 2,220 Climbing Los Angeles Center
10:14AM 36.1901 -114.8361 80° East  Level FlightAware Approximate
10:14AM 36.1811 -115.2322 67° East 257 296 9,600  Level Los Angeles Center
10:14AM 36.1956 -115.1608 76° East 306 352 10,600 1,140 Climbing Los Angeles Center
10:15AM 36.1954 -114.6618 93° East  Level FlightAware Approximate
10:15AM 36.1969 -115.1311 87° East 311 358 10,800  Level Los Angeles Center
10:16AM 36.1874 -114.4866 93° East  Level FlightAware Approximate
10:16AM 36.1981 -115.0094 89° East 346 398 11,900  Level Los Angeles Center
10:17AM 36.1992 -114.8736 89° East 387 445 13,800 1,740 Climbing Los Angeles Center
10:18AM 36.1992 -114.7342 90° East 403 464 15,500 1,800 Climbing Los Angeles Center
10:19AM 36.1969 -114.5575 91° East 426 490 17,500 1,740 Climbing Los Angeles Center
10:20AM 36.1953 -114.4064 91° East 437 503 19,100 1,500 Climbing Los Angeles Center
10:21AM 36.1931 -114.2503 91° East 449 517 20,600 1,320 Climbing Los Angeles Center
10:22AM 36.2108 -114.0914 82° East 462 532 21,900 1,140 Climbing Los Angeles Center
10:23AM 36.2306 -113.9294 81° East 472 543 23,000 1,020 Climbing Los Angeles Center
10:24AM 36.2506 -113.7631 81° East 484 557 24,100 900 Climbing Los Angeles Center
10:25AM 36.2692 -113.5919 82° East 495 570 25,100 1,020 Climbing Los Angeles Center
10:26AM 36.2975 -113.3486 82° East 509 586 26,500 1,020 Climbing Los Angeles Center
10:27AM 36.3239 -113.1967 78° East 515 593 27,200 780 Climbing Los Angeles Center
10:28AM 36.3822 -113.0325 66° East 523 602 28,100 960 Climbing Los Angeles Center
10:29AM 36.4564 -112.8364 65° Northeast 525 604 29,300 1,200 Climbing Los Angeles Center
10:30AM 36.5156 -112.6728 66° East 524 603 30,600 780 Climbing Los Angeles Center
10:31AM 36.5753 -112.5108 65° Northeast 520 598 31,000 180 Climbing Los Angeles Center
10:32AM 36.6339 -112.3500 66° East 514 592 31,000  Level Los Angeles Center
10:33AM 36.6919 -112.1897 66° East 511 588 31,000  Level Los Angeles Center
10:34AM 36.7267 -112.0931 66° East 514 592 31,000 360 Level Denver Center
10:35AM 36.7847 -111.9306 66° East 515 593 31,600 600 Climbing Denver Center
10:36AM 36.8442 -111.7650 66° East 522 601 32,300 660 Climbing Denver Center
10:37AM 36.9044 -111.5983 66° East 527 606 33,000 300 Climbing Denver Center
10:38AM 36.9753 -111.3986 66° East 527 606 33,000  Level Denver Center
10:39AM 37.0322 -111.2328 67° East 525 604 33,000  Level Denver Center
10:40AM 37.0922 -111.0639 66° East 531 611 33,000  Level Denver Center
10:41AM 37.1500 -110.8956 67° East 530 610 33,000  Level Denver Center
10:42AM 37.2086 -110.7250 67° East 533 613 33,000  Level Denver Center
10:43AM 37.2683 -110.5547 66° East 534 615 33,000  Level Denver Center
10:44AM 37.3383 -110.3494 67° East 536 617 33,000  Level Denver Center
10:45AM 37.3939 -110.1858 67° East 534 615 33,000  Level Denver Center
10:46AM 37.4556 -110.0006 67° East 532 612 33,000  Level Denver Center
10:47AM 37.5108 -109.8347 67° East 534 615 33,000  Level Denver Center
10:48AM 37.5769 -109.6400 67° East 539 620 33,000  Level Denver Center
10:49AM 37.6308 -109.4725 68° East 538 619 33,000  Level Denver Center
10:50AM 37.6956 -109.2769 67° East 539 620 33,000  Level Denver Center
10:51AM 37.7514 -109.1094 67° East 540 621 33,000  Level Denver Center
10:52AM 37.8056 -108.9081 71° East 542 624 33,000  Level Denver Center
10:54AM 37.8267 -108.7208 82° East 558 642 33,000  Level Denver Center
10:55AM 37.8425 -108.5378 84° East 553 636 33,000  Level Denver Center
10:56AM 37.8614 -108.3214 84° East 552 635 33,000  Level Denver Center
10:57AM 37.8761 -108.1364 84° East 552 635 33,000  Level Denver Center
10:58AM 37.8939 -107.9239 84° East 548 631 33,000  Level Denver Center
10:59AM 37.9086 -107.7372 84° East 554 638 33,000  Level Denver Center
11:00AM 37.9253 -107.5192 84° East 557 641 33,000  Level Denver Center
11:01AM 37.9394 -107.3331 84° East 557 641 33,000  Level Denver Center
11:02AM 37.9558 -107.1189 84° East 557 641 33,000  Level Denver Center
11:03AM 37.9692 -106.9317 85° East 559 643 33,000  Level Denver Center
11:04AM 37.9842 -106.7139 85° East 558 642 33,000  Level Denver Center
11:05AM 37.9972 -106.5264 85° East 559 643 33,000  Level Denver Center
11:06AM 38.0103 -106.3319 85° East 561 646 33,000  Level Denver Center
11:07AM 38.0239 -106.1192 85° East 560 644 33,000  Level Denver Center
11:08AM 38.0364 -105.9219 85° East 559 643 33,000  Level Denver Center
11:09AM 38.0492 -105.7278 85° East 553 636 33,000  Level Denver Center
11:10AM 38.0631 -105.4961 86° East 559 643 33,000  Level Denver Center
11:11AM 38.0744 -105.2986 86° East 558 642 33,000  Level Denver Center
11:12AM 38.0864 -105.0997 86° East 559 643 33,000  Level Denver Center
11:13AM 38.0967 -104.9033 86° East 556 640 33,000  Level Denver Center
11:14AM 38.1083 -104.7056 86° East 558 642 33,000  Level Denver Center
11:15AM 38.1181 -104.5056 86° East 563 648 33,000  Level Denver Center
11:16AM 38.1303 -104.2742 86° East 562 647 33,000  Level Denver Center
11:17AM 38.1403 -104.0744 86° East 563 648 33,000  Level Denver Center
11:18AM 38.1489 -103.8750 87° East 562 647 33,000  Level Denver Center
11:19AM 38.1586 -103.6775 86° East 560 644 33,000  Level Denver Center
11:20AM 38.1667 -103.4781 87° East 562 647 33,000  Level Denver Center
11:21AM 38.1750 -103.2789 87° East 561 646 33,100 360 Climbing Denver Center
11:22AM 38.1833 -103.0464 87° East 569 655 33,800 720 Climbing Denver Center
11:24AM 38.1906 -102.8531 87° East 573 659 34,600 540 Climbing Denver Center
11:25AM 38.2067 -102.6278 85° East 573 659 35,000 180 Climbing Denver Center
11:26AM 38.2378 -102.4411 78° East 566 651 35,000  Level Denver Center
11:27AM 38.2683 -102.2497 78° East 573 659 35,000  Level Denver Center
11:28AM 38.3047 -102.0289 78° East 572 658 35,000  Level Denver Center
11:29AM 38.3356 -101.8381 78° East 573 659 35,000  Level Denver Center
11:30AM 38.3703 -101.6192 78° East 566 651 35,000  Level Denver Center
11:31AM 38.3989 -101.4294 79° East 567 652 35,000  Level Denver Center
11:32AM 38.4339 -101.2075 79° East 568 654 35,000  Level Denver Center
11:33AM 38.4622 -101.0172 79° East 568 654 35,000  Level Denver Center
11:34AM 38.4969 -100.7953 79° East 569 655 35,000  Level Denver Center
11:35AM 38.5244 -100.6039 80° East 570 656 35,000  Level Denver Center
11:36AM 38.5525 -100.4114 79° East 572 658 35,000  Level Denver Center
11:37AM 38.5856 -100.1883 79° East 573 659 35,000  Level Denver Center
11:38AM 38.6133 -99.9936 80° East 576 663 35,000  Level Denver Center
11:39AM 38.6447 -99.7686 80° East 575 662 35,000  Level Denver Center
11:40AM 38.6711 -99.5767 80° East 571 657 35,000  Level Denver Center
11:41AM 38.7025 -99.3536 80° East 572 658 35,000  Level Denver Center
11:41AM 38.7089 -99.2983 82° East 568 654 35,000  Level Kansas City Center
11:43AM 38.7369 -99.0964 80° East 572 658 35,000  Level Kansas City Center
11:44AM 38.7636 -98.8967 80° East 569 655 35,000  Level Kansas City Center
11:45AM 38.7956 -98.6556 80° East 570 656 35,000  Level Kansas City Center
11:46AM 38.8214 -98.4542 81° East 571 657 35,000  Level Kansas City Center
11:47AM 38.8464 -98.2558 81° East 563 648 35,000  Level Kansas City Center
11:48AM 38.8717 -98.0547 81° East 566 651 35,000  Level Kansas City Center
11:49AM 38.8992 -97.8386 81° East 562 647 35,000  Level Kansas City Center
11:50AM 38.9242 -97.6411 81° East 557 641 35,000  Level Kansas City Center
11:51AM 38.9467 -97.4625 81° East 556 640 35,000  Level Kansas City Center
11:52AM 38.9783 -97.2339 80° East 557 641 35,000  Level Kansas City Center
11:53AM 39.0033 -97.0483 80° East 553 636 35,000  Level Kansas City Center
11:54AM 39.0333 -96.8303 80° East 553 636 35,000  Level Kansas City Center
11:55AM 39.0556 -96.6458 81° East 549 632 35,000  Level Kansas City Center
11:56AM 39.0828 -96.4303 81° East 546 628 35,000  Level Kansas City Center
11:57AM 39.1056 -96.2456 81° East 547 629 35,000  Level Kansas City Center
11:58AM 39.1331 -96.0300 81° East 546 628 35,000  Level Kansas City Center
11:59AM 39.1556 -95.8461 81° East 544 626 35,000  Level Kansas City Center
12:00PM 39.1819 -95.6294 81° East 547 629 35,000  Level Kansas City Center
12:01PM 39.2050 -95.4369 81° East 544 626 35,000  Level Kansas City Center
12:02PM 39.2286 -95.2289 82° East 546 628 35,000  Level Kansas City Center
12:03PM 39.2483 -95.0597 81° East 544 626 35,000  Level Kansas City Center
12:04PM 39.2725 -94.8444 82° East 544 626 35,000  Level Kansas City Center
12:05PM 39.2933 -94.6608 82° East 541 623 35,000  Level Kansas City Center
12:06PM 39.3236 -94.4461 80° East 543 625 35,000  Level Kansas City Center
12:07PM 39.3472 -94.2617 81° East 544 626 35,000  Level Kansas City Center
12:08PM 39.3744 -94.0469 81° East 542 624 35,000  Level Kansas City Center
12:09PM 39.3972 -93.8631 81° East 543 625 35,000  Level Kansas City Center
12:10PM 39.4261 -93.6533 80° East 547 629 35,000  Level Kansas City Center
12:11PM 39.4489 -93.4639 81° East 540 621 35,000  Level Kansas City Center
12:13PM 39.4711 -93.2739 81° East 540 621 35,000  Level Kansas City Center
12:14PM 39.4928 -93.0853 81° East 536 617 35,000  Level Kansas City Center
12:15PM 39.5186 -92.8533 82° East 546 628 35,000  Level Kansas City Center
12:16PM 39.5406 -92.6631 81° East 545 627 35,000  Level Kansas City Center
12:17PM 39.5617 -92.4775 82° East 536 617 35,000  Level Kansas City Center
12:18PM 39.5825 -92.2883 82° East 536 617 35,000  Level Kansas City Center
12:19PM 39.6031 -92.0981 82° East 538 619 35,000  Level Kansas City Center
12:20PM 39.6283 -91.8708 82° East 538 619 35,000  Level Kansas City Center
12:21PM 39.6481 -91.6808 82° East 537 618 35,000  Level Kansas City Center
12:22PM 39.6669 -91.4914 83° East 536 617 35,000  Level Kansas City Center
12:23PM 39.6883 -91.2817 82° East 538 619 35,000  Level Kansas City Center
12:24PM 39.7078 -91.0883 82° East 539 620 35,000  Level Kansas City Center
12:25PM 39.7272 -90.8936 83° East 542 624 35,000  Level Kansas City Center
12:26PM 39.7467 -90.6997 83° East 541 623 35,000  Level Kansas City Center
12:27PM 39.7667 -90.4869 83° East 542 624 35,000  Level Kansas City Center
12:28PM 39.7839 -90.2908 83° East 545 627 35,000  Level Kansas City Center
12:29PM 39.8014 -90.0956 83° East 546 628 35,000  Level Kansas City Center
12:30PM 39.8194 -89.9019 83° East 545 627 35,000  Level Kansas City Center
12:31PM 39.8394 -89.6667 84° East 546 628 35,000  Level Kansas City Center
12:32PM 39.8400 -89.4717 90° East 544 626 35,000  Level Kansas City Center
12:33PM 39.8414 -89.2764 89° East 543 625 35,000  Level Kansas City Center
12:34PM 39.8419 -89.0814 90° East 543 625 35,000  Level Kansas City Center
12:35PM 39.8428 -88.8856 90° East 543 625 35,000  Level Kansas City Center
12:36PM 39.8422 -88.6872 90° East 547 629 35,000  Level Kansas City Center
12:37PM 39.8428 -88.4522 90° East 544 626 35,000  Level Kansas City Center
12:38PM 39.8428 -88.2542 90° East 547 629 35,000  Level Kansas City Center
12:39PM 39.8386 -88.1053 92° East 542 624 35,000  Level Indianapolis Center
12:40PM 39.8553 -87.9425 82° East 543 625 35,000  Level Indianapolis Center
12:41PM 39.8792 -87.7469 81° East 544 626 35,000  Level Indianapolis Center
12:42PM 39.9044 -87.5525 80° East 542 624 35,000 -60 Level Indianapolis Center
12:43PM 39.9286 -87.3592 81° East 539 620 34,900  Descending Indianapolis Center
12:44PM 39.9517 -87.1653 81° East 539 620 35,000  Climbing Indianapolis Center
12:45PM 39.9756 -86.9722 81° East 537 618 35,000  Level Indianapolis Center
12:46PM 39.9989 -86.7786 81° East 535 616 35,000 120 Level Indianapolis Center
12:47PM 40.0214 -86.5853 81° East 534 615 35,300 420 Climbing Indianapolis Center
12:48PM 40.0431 -86.3944 82° East 525 604 35,900 660 Climbing Indianapolis Center
12:49PM 40.0583 -86.2658 81° East 530 610 36,400 480 Climbing Chicago Center
12:50PM 40.0803 -86.0725 82° East 530 610 36,700 300 Climbing Chicago Center
12:50PM 40.0869 -86.0056 83° East 536 617 36,900 180 Climbing Indianapolis Center
12:51PM 40.1122 -85.7767 82° East 541 623 37,000  Climbing Indianapolis Center
12:52PM 40.1333 -85.5814 82° East 539 620 37,000  Level Indianapolis Center
12:53PM 40.1431 -85.4839 83° East 540 621 37,000  Level Chicago Center
12:54PM 40.1633 -85.2908 82° East 536 617 37,000  Level Chicago Center
12:54PM 40.1733 -85.1961 82° East 529 609 37,000  Level Indianapolis Center
12:55PM 40.1933 -85.0031 82° East 532 612 37,000 -60 Level Indianapolis Center
12:56PM 40.2128 -84.8175 82° East 529 609 36,900  Descending Indianapolis Center
12:57PM 40.2231 -84.6250 86° East 525 604 37,000  Climbing Indianapolis Center
12:58PM 40.2303 -84.4347 87° East 521 600 37,000  Level Indianapolis Center
12:59PM 40.2389 -84.2164 87° East 509 586 37,000 -60 Level Indianapolis Center
01:00PM 40.2453 -84.0308 87° East 505 581 36,900  Descending Indianapolis Center
01:01PM 40.2522 -83.8422 87° East 510 587 37,000  Climbing Indianapolis Center
01:02PM 40.2583 -83.6494 88° East 519 597 37,000  Level Indianapolis Center
01:04PM 40.2650 -83.4536 87° East 529 609 37,000  Level Indianapolis Center
01:05PM 40.2708 -83.2589 88° East 527 606 37,000 -60 Level Indianapolis Center
01:06PM 40.2758 -83.0628 88° East 530 610 36,900 -60 Descending Indianapolis Center
01:07PM 40.2819 -82.8675 88° East 530 610 36,900  Level Indianapolis Center
01:08PM 40.2864 -82.6708 88° East 531 611 37,000  Climbing Indianapolis Center
01:09PM 40.2908 -82.4769 88° East 530 610 37,000  Level Indianapolis Center
01:10PM 40.2958 -82.2883 88° East 523 602 37,000  Level Indianapolis Center
01:11PM 40.2997 -82.0961 88° East 523 602 37,000  Level Indianapolis Center
01:12PM 40.3028 -81.8739 89° East 522 601 37,000  Level Indianapolis Center
01:13PM 40.3061 -81.6806 89° East 527 606 37,000  Level Indianapolis Center
01:14PM 40.3119 -81.4517 88° East 515 593 37,000  Level Cleveland Center
01:16PM 40.3131 -81.1125 90° East 513 590 37,000  Level Indianapolis Center
01:17PM 40.3156 -80.9244 89° East 513 590 37,000  Level Indianapolis Center
01:18PM 40.3167 -80.7378 89° East 511 588 37,000  Level Indianapolis Center
01:19PM 40.3214 -80.5231 88° East 515 593 37,000  Level Cleveland Center
01:20PM 40.3211 -80.3381 90° East 515 593 37,000  Level Cleveland Center
01:21PM 40.3186 -80.1664 91° East 515 593 37,100  Climbing Cleveland Center
01:22PM 40.3219 -79.9758 89° East 515 593 37,100 -60 Level Cleveland Center
01:23PM 40.3228 -79.7881 90° East 515 593 37,000 -60 Descending Cleveland Center
01:24PM 40.3214 -79.6028 91° East 515 593 37,000  Level Cleveland Center
01:25PM 40.3217 -79.4150 90° East 515 593 37,000  Level Cleveland Center
01:26PM 40.3175 -79.2242 92° East 515 593 37,000  Level Cleveland Center
01:27PM 40.3172 -79.0311 90° East 515 593 37,000 -540 Level Cleveland Center
01:28PM 40.3164 -78.8350 90° East 515 593 36,000 -1,800 Descending Cleveland Center
01:29PM 40.3156 -78.6469 90° East 520 598 33,400 -2,460 Descending Cleveland Center
01:31PM 40.3153 -78.3011 90° East 531 611 29,100 -2,280 Descending New York Center
01:32PM 40.3119 -78.1236 91° East 510 587 27,000 -2,040 Descending New York Center
01:33PM 40.3131 -77.9331 90° East 484 557 25,000 -1,200 Descending New York Center
01:34PM 40.3092 -77.7531 92° East 479 551 24,700 -660 Descending New York Center
01:35PM 40.3114 -77.5736 89° East 489 563 23,800 -900 Descending New York Center
01:36PM 40.3067 -77.4017 92° East 489 563 22,900 -960 Descending New York Center
01:37PM 40.3039 -77.2244 91° East 484 557 21,900 -960 Descending New York Center
01:38PM 40.2969 -77.0467 93° East 484 557 21,000 -1,020 Descending New York Center
01:39PM 40.2575 -76.8800 107° East 478 550 20,000 -900 Descending New York Center
01:40PM 40.2267 -76.7522 108° East 467 537 19,200 -1,320 Descending New York Center
01:41PM 40.1875 -76.5747 106° East 462 532 17,400 -2,520 Descending New York Center
01:42PM 40.1342 -76.3478 107° East 448 516 13,400 -2,880 Descending FAA TRACON SMA TRACON (SMA)
01:42PM 40.1222 -76.3008 108° East 446 513 12,600 -1,980 Descending FAA TRACON SMA TRACON (SMA)
01:43PM 40.1164 -76.2411 97° East 442 509 12,100 -1,320 Descending FAA TRACON SMA TRACON (SMA)
01:43PM 40.1150 -76.1947 92° East 414 476 11,700 -1,200 Descending FAA TRACON SMA TRACON (SMA)
01:43PM 40.1111 -76.1522 97° East 379 436 11,300 -1,260 Descending FAA TRACON SMA TRACON (SMA)
01:44PM 40.1072 -76.1022 96° East 356 410 10,900 -1,260 Descending FAA TRACON SMA TRACON (SMA)
01:44PM 40.1044 -76.0642 95° East 346 398 10,500 -900 Descending FAA TRACON SMA TRACON (SMA)
01:44PM 40.1019 -76.0278 95° East 330 380 10,300 -600 Descending FAA TRACON SMA TRACON (SMA)
01:45PM 40.0989 -75.9819 95° East 330 380 10,100 -600 Descending FAA TRACON SMA TRACON (SMA)
01:45PM 40.0961 -75.9486 96° East 329 379 9,900 -780 Descending FAA TRACON SMA TRACON (SMA)
01:45PM 40.0933 -75.9092 95° East 328 377 9,600 -1,200 Descending FAA TRACON SMA TRACON (SMA)
01:46PM 40.0903 -75.8631 95° East 327 376 9,100 -1,320 Descending FAA TRACON SMA TRACON (SMA)
01:46PM 40.0878 -75.8275 95° East 326 375 8,700 -1,080 Descending FAA TRACON SMA TRACON (SMA)
01:46PM 40.0856 -75.7931 95° East 325 374 8,400 -1,080 Descending FAA TRACON SMA TRACON (SMA)
01:47PM 40.0817 -75.7494 97° East 321 369 8,000 -900 Descending FAA TRACON SMA TRACON (SMA)
01:47PM 40.0803 -75.7131 93° East 312 359 7,800 -600 Descending FAA TRACON SMA TRACON (SMA)
01:47PM 40.0786 -75.6822 94° East 310 357 7,600 -600 Descending FAA TRACON SMA TRACON (SMA)
01:48PM 40.0772 -75.6353 92° East 310 357 7,400 -600 Descending FAA TRACON SMA TRACON (SMA)
01:48PM 40.0753 -75.6006 94° East 310 357 7,200 -480 Descending FAA TRACON SMA TRACON (SMA)
01:48PM 40.0742 -75.5647 92° East 311 358 7,100 -480 Descending FAA TRACON SMA TRACON (SMA)
01:49PM 40.0717 -75.5317 96° East 310 357 6,900 -600 Descending FAA TRACON SMA TRACON (SMA)
01:49PM 40.0697 -75.4883 93° East 307 353 6,700 -600 Descending FAA TRACON SMA TRACON (SMA)
01:49PM 40.0692 -75.4581 91° East 304 350 6,500 -600 Descending FAA TRACON SMA TRACON (SMA)
01:50PM 40.0661 -75.4133 95° East 299 344 6,300 -480 Descending FAA TRACON SMA TRACON (SMA)
01:50PM 40.0650 -75.3811 93° East 296 341 6,200 -480 Descending FAA TRACON SMA TRACON (SMA)
01:50PM 40.0625 -75.3489 96° East 296 341 6,000 -480 Descending FAA TRACON SMA TRACON (SMA)
01:51PM 40.0611 -75.3142 93° East 295 339 5,900 -180 Descending FAA TRACON SMA TRACON (SMA)
01:51PM 40.0592 -75.2731 94° East 296 341 5,900  Level FAA TRACON SMA TRACON (SMA)
01:51PM 40.0572 -75.2422 95° East 295 339 5,900  Level FAA TRACON SMA TRACON (SMA)
01:52PM 40.0511 -75.2106 104° East 254 292 5,900  Level FAA TRACON SMA TRACON (SMA)
01:52PM 40.0389 -75.1814 119° Southeast 240 276 5,900  Level FAA TRACON SMA TRACON (SMA)
01:52PM 40.0278 -75.1594 123° Southeast 229 264 5,900  Level FAA TRACON SMA TRACON (SMA)
01:53PM 40.0186 -75.1397 121° Southeast 193 222 5,900 -600 Level FAA TRACON SMA TRACON (SMA)
01:53PM 40.0083 -75.1167 120° Southeast 184 212 5,500 -1,080 Descending FAA TRACON SMA TRACON (SMA)
01:53PM 40.0003 -75.0994 121° Southeast 195 224 5,200 -1,440 Descending FAA TRACON SMA TRACON (SMA)
01:54PM 39.9914 -75.0789 119° Southeast 193 222 4,600 -2,040 Descending FAA TRACON SMA TRACON (SMA)
01:54PM 39.9783 -75.0631 137° Southeast 193 222 3,900 -1,620 Descending FAA TRACON SMA TRACON (SMA)
01:54PM 39.9658 -75.0533 149° Southeast 180 207 3,500 -1,320 Descending FAA TRACON SMA TRACON (SMA)
01:55PM 39.9489 -75.0464 163° South 179 206 3,000 -1,320 Descending FAA TRACON SMA TRACON (SMA)
01:55PM 39.9197 -75.0606 200° South 157 181 2,200 -1,200 Descending FAA TRACON SMA TRACON (SMA)